createdAt,value
2019-06-08T00:01:58.838Z,2.40
2019-06-08T00:04:27.547Z,2.50
2019-06-08T00:06:55.989Z,2.00
2019-06-08T00:09:25.274Z,2.43
2019-06-08T00:11:53.721Z,2.07
2019-06-08T00:14:23.363Z,2.17
2019-06-08T00:16:51.929Z,2.07
2019-06-08T00:19:21.459Z,2.70
2019-06-08T00:21:50.024Z,2.30
2019-06-08T00:24:18.414Z,2.63
2019-06-08T00:26:46.832Z,2.77
2019-06-08T00:29:16.272Z,2.20
2019-06-08T00:31:45.007Z,2.27
2019-06-08T00:34:14.502Z,2.13
2019-06-08T00:36:43.164Z,2.20
2019-06-08T00:39:12.359Z,1.77
2019-06-08T00:41:40.844Z,2.30
2019-06-08T00:44:09.286Z,2.70
2019-06-08T00:46:37.709Z,3.10
2019-06-08T00:49:06.134Z,2.17
2019-06-08T00:51:34.600Z,2.57
2019-06-08T00:54:03.013Z,2.60
2019-06-08T00:56:31.534Z,3.00
2019-06-08T00:58:59.938Z,2.87
2019-06-08T01:01:28.353Z,2.80
2019-06-08T01:03:56.780Z,3.20
2019-06-08T01:06:25.228Z,3.10
2019-06-08T01:08:53.740Z,2.87
2019-06-08T01:11:22.578Z,3.27
2019-06-08T01:13:51.110Z,3.20
2019-06-08T01:16:20.834Z,3.30
2019-06-08T01:18:49.499Z,3.53
2019-06-08T01:21:19.289Z,2.33
2019-06-08T01:23:47.908Z,3.10
2019-06-08T01:26:16.880Z,2.50
2019-06-08T01:28:45.353Z,3.40
2019-06-08T01:31:13.780Z,3.10
2019-06-08T01:33:42.195Z,2.43
2019-06-08T01:36:10.630Z,2.37
2019-06-08T01:38:39.059Z,2.67
2019-06-08T01:41:07.476Z,2.57
2019-06-08T01:43:35.902Z,2.10
2019-06-08T01:46:04.333Z,2.20
2019-06-08T01:48:32.742Z,2.60
2019-06-08T01:51:01.179Z,2.37
2019-06-08T01:53:31.071Z,3.20
2019-06-08T01:55:59.628Z,2.10
2019-06-08T01:58:29.345Z,1.30
2019-06-08T02:00:57.995Z,1.60
2019-06-08T02:03:26.437Z,1.63
2019-06-08T02:05:54.867Z,2.00
2019-06-08T02:08:24.378Z,2.40
2019-06-08T02:10:52.924Z,1.57
2019-06-08T02:13:21.379Z,1.93
2019-06-08T02:15:49.799Z,2.10
2019-06-08T02:18:18.220Z,1.80
2019-06-08T02:20:46.664Z,1.50
2019-06-08T02:23:15.079Z,1.47
2019-06-08T02:25:43.499Z,1.67
2019-06-08T02:28:13.342Z,1.77
2019-06-08T02:30:42.087Z,1.97
2019-06-08T02:33:10.484Z,1.60
2019-06-08T02:35:38.959Z,1.83
2019-06-08T02:38:07.719Z,1.20
2019-06-08T02:40:36.888Z,1.80
2019-06-08T02:43:05.510Z,1.70
2019-06-08T02:45:34.700Z,1.70
2019-06-08T02:48:04.433Z,1.10
2019-06-08T02:50:51.216Z,1.00
2019-06-08T02:53:19.705Z,1.70
2019-06-08T02:55:48.865Z,1.50
2019-06-08T02:58:17.644Z,1.37
2019-06-08T03:00:48.829Z,1.57
2019-06-08T03:03:17.306Z,1.07
2019-06-08T03:05:45.752Z,1.70
2019-06-08T03:08:14.236Z,0.80
2019-06-08T03:10:42.669Z,1.70
2019-06-08T03:13:12.743Z,1.43
2019-06-08T03:15:43.529Z,1.47
2019-06-08T03:18:11.219Z,1.00
2019-06-08T03:20:40.100Z,1.50
2019-06-08T03:23:08.990Z,1.20
2019-06-08T03:25:47.377Z,1.50
2019-06-08T03:28:07.512Z,1.70
2019-06-08T03:30:42.231Z,1.57
2019-06-08T03:33:05.989Z,1.60
2019-06-08T03:35:38.844Z,2.30
2019-06-08T03:38:04.508Z,1.70
2019-06-08T03:40:33.886Z,1.37
2019-06-08T03:43:02.750Z,1.30
2019-06-08T03:45:31.173Z,0.97
2019-06-08T03:47:59.589Z,1.73
2019-06-08T03:50:28.022Z,1.73
2019-06-08T03:52:56.440Z,1.63
2019-06-08T03:55:24.855Z,1.27
2019-06-08T03:57:53.302Z,1.40
2019-06-08T04:00:22.277Z,1.17
2019-06-08T04:02:50.690Z,1.50
2019-06-08T04:05:19.149Z,1.20
2019-06-08T04:07:47.562Z,1.60
2019-06-08T04:10:15.991Z,1.30
2019-06-08T04:12:46.163Z,1.10
2019-06-08T04:15:14.756Z,1.30
2019-06-08T04:17:44.121Z,1.60
2019-06-08T04:20:12.799Z,1.17
2019-06-08T04:22:47.006Z,1.33
2019-06-08T04:25:15.011Z,0.80
2019-06-08T04:27:44.773Z,1.10
2019-06-08T04:30:13.668Z,1.10
2019-06-08T04:32:42.848Z,0.73
2019-06-08T04:35:11.449Z,1.00
2019-06-08T04:37:40.496Z,0.67
2019-06-08T04:40:09.943Z,0.50
2019-06-08T04:42:39.308Z,0.57
2019-06-08T04:45:08.591Z,0.70
2019-06-08T04:47:38.430Z,0.50
2019-06-08T04:50:21.629Z,0.50
2019-06-08T04:52:38.901Z,0.50
2019-06-08T04:55:07.381Z,0.63
2019-06-08T04:57:35.939Z,0.60
2019-06-08T05:00:11.711Z,0.80
2019-06-08T05:02:36.363Z,0.80
2019-06-08T05:05:07.687Z,0.67
2019-06-08T05:07:36.111Z,0.70
2019-06-08T05:10:07.275Z,0.60
2019-06-08T05:12:35.711Z,0.80
2019-06-08T05:15:05.368Z,0.57
2019-06-08T05:17:33.792Z,0.50
2019-06-08T05:20:02.237Z,0.60
2019-06-08T05:22:30.655Z,0.87
2019-06-08T05:24:59.069Z,0.90
2019-06-08T05:27:27.721Z,0.90
2019-06-08T05:29:56.074Z,0.90
2019-06-08T05:32:24.471Z,0.90
2019-06-08T05:34:52.915Z,0.90
2019-06-08T05:37:21.344Z,0.63
2019-06-08T05:39:49.968Z,0.50
2019-06-08T05:42:18.521Z,0.80
2019-06-08T05:44:47.854Z,0.80
2019-06-08T05:47:16.349Z,0.70
2019-06-08T05:49:45.788Z,0.90
2019-06-08T05:52:14.198Z,1.00
2019-06-08T05:54:43.793Z,0.60
2019-06-08T05:57:12.535Z,1.10
2019-06-08T05:59:42.064Z,0.80
2019-06-08T06:02:10.484Z,0.97
2019-06-08T06:04:40.679Z,0.80
2019-06-08T06:07:08.990Z,0.60
2019-06-08T06:09:37.402Z,0.80
2019-06-08T06:12:06.890Z,0.70
2019-06-08T06:14:36.968Z,0.50
2019-06-08T06:17:05.431Z,0.60
2019-06-08T06:19:33.939Z,0.70
2019-06-08T06:22:02.349Z,0.60
2019-06-08T06:24:30.771Z,0.83
2019-06-08T06:26:59.210Z,0.70
2019-06-08T06:29:27.635Z,1.00
2019-06-08T06:31:56.040Z,0.60
2019-06-08T06:34:24.498Z,0.70
2019-06-08T06:36:52.911Z,0.63
2019-06-08T06:39:21.339Z,0.70
2019-06-08T06:41:49.966Z,0.90
2019-06-08T06:44:18.504Z,0.60
2019-06-08T06:46:47.938Z,0.60
2019-06-08T06:49:16.454Z,1.00
2019-06-08T06:51:44.873Z,0.73
2019-06-08T06:54:13.291Z,0.83
2019-06-08T06:56:43.081Z,0.57
2019-06-08T06:59:12.254Z,0.80
2019-06-08T07:01:40.673Z,1.00
2019-06-08T07:04:09.127Z,0.73
2019-06-08T07:06:37.557Z,0.83
2019-06-08T07:09:06.697Z,0.40
2019-06-08T07:11:35.274Z,0.60
2019-06-08T07:14:03.683Z,0.93
2019-06-08T07:16:32.111Z,0.60
2019-06-08T07:19:00.542Z,0.80
2019-06-08T07:21:40.898Z,0.63
2019-06-08T07:23:59.039Z,0.80
2019-06-08T07:26:27.486Z,0.60
2019-06-08T07:28:56.163Z,0.83
2019-06-08T07:31:24.750Z,0.50
2019-06-08T07:33:53.646Z,1.00
2019-06-08T07:36:22.101Z,0.47
2019-06-08T07:38:51.376Z,0.40
2019-06-08T07:41:20.338Z,0.70
2019-06-08T07:43:49.664Z,0.90
2019-06-08T07:46:18.816Z,0.70
2019-06-08T07:48:48.113Z,0.97
2019-06-08T07:51:16.586Z,0.50
2019-06-08T07:53:44.999Z,0.53
2019-06-08T07:56:13.450Z,0.83
2019-06-08T07:58:41.915Z,0.70
2019-06-08T08:01:10.283Z,0.50
2019-06-08T08:03:39.093Z,0.73
2019-06-08T08:06:07.518Z,0.57
2019-06-08T08:08:35.930Z,0.70
2019-06-08T08:11:04.395Z,0.50
2019-06-08T08:13:32.825Z,0.67
2019-06-08T08:16:01.238Z,0.70
2019-06-08T08:18:29.697Z,0.60
2019-06-08T08:21:04.578Z,0.50
2019-06-08T08:23:28.566Z,0.60
2019-06-08T08:26:00.317Z,0.93
2019-06-08T08:28:27.972Z,0.70
2019-06-08T08:30:59.784Z,0.70
2019-06-08T08:33:27.676Z,1.03
2019-06-08T08:35:58.639Z,0.80
2019-06-08T08:38:27.293Z,0.70
2019-06-08T08:40:59.470Z,0.60
2019-06-08T08:43:28.027Z,0.60
2019-06-08T08:45:56.768Z,0.50
2019-06-08T08:48:29.395Z,1.20
2019-06-08T08:50:58.617Z,0.50
2019-06-08T08:53:28.072Z,0.57
2019-06-08T08:56:00.473Z,0.57
2019-06-08T08:58:28.058Z,0.77
2019-06-08T09:00:59.799Z,0.70
2019-06-08T09:03:31.004Z,0.40
2019-06-08T09:06:00.572Z,0.63
2019-06-08T09:08:29.505Z,0.50
2019-06-08T09:10:59.607Z,0.60
2019-06-08T09:13:28.147Z,0.60
2019-06-08T09:15:58.492Z,0.43
2019-06-08T09:18:28.710Z,0.60
2019-06-08T09:21:00.682Z,0.50
2019-06-08T09:23:27.979Z,0.50
2019-06-08T09:26:03.916Z,0.60
2019-06-08T09:28:28.547Z,0.50
2019-06-08T09:30:59.089Z,0.30
2019-06-08T09:33:28.777Z,0.40
2019-06-08T09:35:59.936Z,0.50
2019-06-08T09:38:28.710Z,0.33
2019-06-08T09:40:59.829Z,0.70
2019-06-08T09:43:28.927Z,0.50
2019-06-08T09:46:00.490Z,0.33
2019-06-08T09:48:28.872Z,0.50
2019-06-08T09:50:59.847Z,0.43
2019-06-08T09:53:36.584Z,0.30
2019-06-08T09:56:01.346Z,0.33
2019-06-08T09:58:29.233Z,0.40
2019-06-08T10:01:01.205Z,0.30
2019-06-08T10:03:30.756Z,0.33
2019-06-08T10:06:01.547Z,0.50
2019-06-08T10:08:28.442Z,0.83
2019-06-08T10:10:59.483Z,0.40
2019-06-08T10:13:28.072Z,0.47
2019-06-08T10:16:00.006Z,0.50
2019-06-08T10:18:28.558Z,0.40
2019-06-08T10:21:00.428Z,0.60
2019-06-08T10:23:33.528Z,0.50
2019-06-08T10:26:00.359Z,0.60
2019-06-08T10:28:28.967Z,0.57
2019-06-08T10:30:59.660Z,0.47
2019-06-08T10:33:28.192Z,0.70
2019-06-08T10:35:59.103Z,0.40
2019-06-08T10:38:28.827Z,0.47
2019-06-08T10:41:11.948Z,0.50
2019-06-08T10:43:33.723Z,0.60
2019-06-08T10:46:08.500Z,0.50
2019-06-08T10:48:32.189Z,0.50
2019-06-08T10:51:03.765Z,0.47
2019-06-08T10:53:45.082Z,0.70
2019-06-08T10:56:01.686Z,0.57
2019-06-08T10:58:30.858Z,0.70
2019-06-08T11:01:02.255Z,0.50
2019-06-08T11:03:30.708Z,0.50
2019-06-08T11:06:01.242Z,0.77
2019-06-08T11:08:30.040Z,0.40
2019-06-08T11:11:00.003Z,0.50
2019-06-08T11:13:28.548Z,0.40
2019-06-08T11:15:58.685Z,0.40
2019-06-08T11:18:28.670Z,0.50
2019-06-08T11:20:59.449Z,0.50
2019-06-08T11:23:28.744Z,0.30
2019-06-08T11:25:59.478Z,0.70
2019-06-08T11:28:28.312Z,0.70
2019-06-08T11:30:57.039Z,0.40
2019-06-08T11:33:25.483Z,0.40
2019-06-08T11:35:53.881Z,0.50
2019-06-08T11:38:22.305Z,0.80
2019-06-08T11:40:50.769Z,0.30
2019-06-08T11:43:19.148Z,0.30
2019-06-08T11:45:48.073Z,0.77
2019-06-08T11:48:18.308Z,0.43
2019-06-08T11:50:48.868Z,0.50
2019-06-08T11:53:17.980Z,0.63
2019-06-08T11:55:50.712Z,0.50
2019-06-08T11:58:22.132Z,0.40
2019-06-08T12:01:01.804Z,0.40
2019-06-08T12:03:30.493Z,0.40
2019-06-08T12:05:59.245Z,0.40
2019-06-08T12:08:28.427Z,0.40
2019-06-08T12:11:01.203Z,0.27
2019-06-08T12:13:27.920Z,0.30
2019-06-08T12:15:58.750Z,0.30
2019-06-08T12:18:26.593Z,0.30
2019-06-08T12:20:55.019Z,0.30
2019-06-08T12:23:23.481Z,0.30
2019-06-08T12:25:51.896Z,0.60
2019-06-08T12:28:20.325Z,0.40
2019-06-08T12:30:48.757Z,0.40
2019-06-08T12:33:19.191Z,0.70
2019-06-08T12:35:47.717Z,0.30
2019-06-08T12:38:18.690Z,0.40
2019-06-08T12:40:48.387Z,0.40
2019-06-08T12:43:18.482Z,0.40
2019-06-08T12:45:46.529Z,0.63
2019-06-08T12:48:19.578Z,0.37
2019-06-08T12:50:45.015Z,0.30
2019-06-08T12:53:17.734Z,0.30
2019-06-08T12:55:43.548Z,0.33
2019-06-08T12:58:13.014Z,0.50
2019-06-08T13:00:43.502Z,0.40
2019-06-08T13:03:12.949Z,0.30
2019-06-08T13:05:41.408Z,0.50
2019-06-08T13:08:10.535Z,0.50
2019-06-08T13:10:39.925Z,0.87
2019-06-08T13:13:09.610Z,1.00
2019-06-08T13:15:38.595Z,0.80
2019-06-08T13:18:08.930Z,0.80
2019-06-08T13:20:38.944Z,0.40
2019-06-08T13:23:08.677Z,0.60
2019-06-08T13:25:40.997Z,0.43
2019-06-08T13:28:10.921Z,0.50
2019-06-08T13:30:39.004Z,0.80
2019-06-08T13:33:08.128Z,0.60
2019-06-08T13:35:39.518Z,0.60
2019-06-08T13:38:08.700Z,0.90
2019-06-08T13:40:37.764Z,0.50
2019-06-08T13:43:08.169Z,0.47
2019-06-08T13:45:39.108Z,0.60
2019-06-08T13:48:08.933Z,0.43
2019-06-08T13:50:37.093Z,0.60
2019-06-08T13:53:05.531Z,0.60
2019-06-08T13:55:48.490Z,0.47
2019-06-08T13:58:04.012Z,0.63
2019-06-08T14:00:38.736Z,0.40
2019-06-08T14:03:08.450Z,0.60
2019-06-08T14:05:38.927Z,0.47
2019-06-08T14:08:10.588Z,0.50
2019-06-08T14:10:40.532Z,0.73
2019-06-08T14:13:09.008Z,0.70
2019-06-08T14:15:37.885Z,0.70
2019-06-08T14:18:08.845Z,0.40
2019-06-08T14:20:38.569Z,0.37
2019-06-08T14:23:09.210Z,0.60
2019-06-08T14:25:47.847Z,0.90
2019-06-08T14:28:07.569Z,0.90
2019-06-08T14:30:37.775Z,0.53
2019-06-08T14:33:08.392Z,0.40
2019-06-08T14:35:36.161Z,0.40
2019-06-08T14:38:04.604Z,0.50
2019-06-08T14:40:33.186Z,0.57
2019-06-08T14:43:01.733Z,0.60
2019-06-08T14:45:31.173Z,1.00
2019-06-08T14:47:59.751Z,0.60
2019-06-08T14:50:30.649Z,0.50
2019-06-08T14:52:59.058Z,0.83
2019-06-08T14:55:33.199Z,0.60
2019-06-08T14:57:58.103Z,0.60
2019-06-08T15:00:27.691Z,0.50
2019-06-08T15:02:59.040Z,0.47
2019-06-08T15:05:30.494Z,0.80
2019-06-08T15:08:00.438Z,0.60
2019-06-08T15:10:29.399Z,0.30
2019-06-08T15:12:57.795Z,0.70
2019-06-08T15:15:28.861Z,0.40
2019-06-08T15:17:58.268Z,1.03
2019-06-08T15:20:26.832Z,0.50
2019-06-08T15:22:57.693Z,0.80
2019-06-08T15:25:25.355Z,0.60
2019-06-08T15:27:55.084Z,0.37
2019-06-08T15:30:23.532Z,0.60
2019-06-08T15:32:51.953Z,0.50
2019-06-08T15:35:21.070Z,0.47
2019-06-08T15:37:49.577Z,0.80
2019-06-08T15:40:17.947Z,0.60
2019-06-08T15:42:48.193Z,0.53
2019-06-08T15:45:18.296Z,0.60
2019-06-08T15:47:48.568Z,0.73
2019-06-08T15:50:17.965Z,0.60
2019-06-08T15:52:48.157Z,0.73
2019-06-08T15:55:19.344Z,0.60
2019-06-08T15:57:46.880Z,0.43
2019-06-08T16:00:15.402Z,0.50
2019-06-08T16:02:43.813Z,0.40
2019-06-08T16:05:12.251Z,0.60
2019-06-08T16:07:40.715Z,0.50
2019-06-08T16:10:09.209Z,0.37
2019-06-08T16:12:37.630Z,0.53
2019-06-08T16:15:07.240Z,0.60
2019-06-08T16:17:35.667Z,0.73
2019-06-08T16:20:04.424Z,0.50
2019-06-08T16:22:33.861Z,0.43
2019-06-08T16:25:02.446Z,0.30
2019-06-08T16:27:32.139Z,0.33
2019-06-08T16:30:00.646Z,0.50
2019-06-08T16:32:29.281Z,0.50
2019-06-08T16:34:57.732Z,0.60
2019-06-08T16:37:27.480Z,0.30
2019-06-08T16:39:55.975Z,0.60
2019-06-08T16:42:24.394Z,0.50
2019-06-08T16:44:52.829Z,0.60
2019-06-08T16:47:21.266Z,0.80
2019-06-08T16:49:49.672Z,0.53
2019-06-08T16:52:18.215Z,0.30
2019-06-08T16:54:46.658Z,0.33
2019-06-08T16:57:15.069Z,0.47
2019-06-08T16:59:43.540Z,0.60
2019-06-08T17:02:11.959Z,0.50
2019-06-08T17:04:40.386Z,0.40
2019-06-08T17:07:08.833Z,0.50
2019-06-08T17:09:37.842Z,0.50
2019-06-08T17:12:06.301Z,0.30
2019-06-08T17:14:36.143Z,0.50
2019-06-08T17:17:04.881Z,0.60
2019-06-08T17:19:34.153Z,0.40
2019-06-08T17:22:02.643Z,0.30
2019-06-08T17:24:32.387Z,0.50
2019-06-08T17:27:01.133Z,0.40
2019-06-08T17:29:30.622Z,0.43
2019-06-08T17:31:59.214Z,0.30
2019-06-08T17:34:27.637Z,0.40
2019-06-08T17:36:56.090Z,0.30
2019-06-08T17:39:24.701Z,0.40
2019-06-08T17:41:53.231Z,0.70
2019-06-08T17:44:21.750Z,0.50
2019-06-08T17:46:50.172Z,0.40
2019-06-08T17:49:18.589Z,0.40
2019-06-08T17:51:47.044Z,0.50
2019-06-08T17:54:15.460Z,0.30
2019-06-08T17:56:43.882Z,0.40
2019-06-08T17:59:12.329Z,0.33
2019-06-08T18:01:41.739Z,0.40
2019-06-08T18:04:10.270Z,0.77
2019-06-08T18:06:40.208Z,0.23
2019-06-08T18:09:10.239Z,0.40
2019-06-08T18:11:41.457Z,0.40
2019-06-08T18:14:08.869Z,0.50
2019-06-08T18:16:39.447Z,0.40
2019-06-08T18:19:08.976Z,0.50
2019-06-08T18:21:39.223Z,0.30
2019-06-08T18:24:07.830Z,0.40
2019-06-08T18:26:38.329Z,0.70
2019-06-08T18:29:07.887Z,0.27
2019-06-08T18:31:39.604Z,0.50
2019-06-08T18:34:08.406Z,0.47
2019-06-08T18:36:39.101Z,0.37
2019-06-08T18:39:07.214Z,0.40
2019-06-08T18:41:37.870Z,0.30
2019-06-08T18:44:08.413Z,0.40
2019-06-08T18:46:37.959Z,0.43
2019-06-08T18:49:08.089Z,0.33
2019-06-08T18:51:38.166Z,0.50
2019-06-08T18:54:14.335Z,0.60
2019-06-08T18:56:39.994Z,0.60
2019-06-08T18:59:07.718Z,0.40
2019-06-08T19:01:39.082Z,0.53
2019-06-08T19:04:07.665Z,0.57
2019-06-08T19:06:37.815Z,0.50
2019-06-08T19:09:07.598Z,0.70
2019-06-08T19:11:37.735Z,0.50
2019-06-08T19:14:07.202Z,0.40
2019-06-08T19:16:37.910Z,0.60
2019-06-08T19:19:07.407Z,0.67
2019-06-08T19:21:37.533Z,0.50
2019-06-08T19:24:09.612Z,0.63
2019-06-08T19:26:39.422Z,0.60
2019-06-08T19:29:07.692Z,0.63
2019-06-08T19:31:38.631Z,0.50
2019-06-08T19:34:07.638Z,0.30
2019-06-08T19:36:38.771Z,0.53
2019-06-08T19:39:07.863Z,0.50
2019-06-08T19:41:38.091Z,0.80
2019-06-08T19:44:07.536Z,0.50
2019-06-08T19:46:36.000Z,0.50
2019-06-08T19:49:04.422Z,0.60
2019-06-08T19:51:32.871Z,0.60
2019-06-08T19:54:01.287Z,0.50
2019-06-08T19:56:29.733Z,0.50
2019-06-08T19:59:04.490Z,0.60
2019-06-08T20:01:28.419Z,0.47
2019-06-08T20:03:58.071Z,0.67
2019-06-08T20:06:27.865Z,0.80
2019-06-08T20:08:57.518Z,1.03
2019-06-08T20:11:26.138Z,1.07
2019-06-08T20:13:54.569Z,0.50
2019-06-08T20:16:22.999Z,0.70
2019-06-08T20:18:52.887Z,0.93
2019-06-08T20:21:21.822Z,0.70
2019-06-08T20:23:50.973Z,0.57
2019-06-08T20:26:19.475Z,0.80
2019-06-08T20:28:51.238Z,0.50
2019-06-08T20:31:18.124Z,0.73
2019-06-08T20:33:49.828Z,0.80
2019-06-08T20:36:17.537Z,0.73
2019-06-08T20:38:47.407Z,0.80
2019-06-08T20:41:18.134Z,0.70
2019-06-08T20:43:49.917Z,0.70
2019-06-08T20:46:17.083Z,0.87
2019-06-08T20:48:48.390Z,0.93
2019-06-08T20:51:17.250Z,0.90
2019-06-08T20:53:48.887Z,1.17
2019-06-08T20:56:17.414Z,1.17
2019-06-08T20:58:48.049Z,1.37
2019-06-08T21:01:18.030Z,1.47
2019-06-08T21:03:48.157Z,1.00
2019-06-08T21:06:17.166Z,1.23
2019-06-08T21:08:46.607Z,0.87
2019-06-08T21:11:17.590Z,0.90
2019-06-08T21:13:48.886Z,1.43
2019-06-08T21:16:18.078Z,1.00
2019-06-08T21:18:46.845Z,1.00
2019-06-08T21:21:17.450Z,0.80
2019-06-08T21:23:47.112Z,1.10
2019-06-08T21:26:15.455Z,0.90
2019-06-08T21:28:43.910Z,0.73
2019-06-08T21:31:12.327Z,1.00
2019-06-08T21:33:40.752Z,1.00
2019-06-08T21:36:09.183Z,1.27
2019-06-08T21:38:37.825Z,0.80
2019-06-08T21:41:08.287Z,1.23
2019-06-08T21:43:37.454Z,0.67
2019-06-08T21:46:07.744Z,0.77
2019-06-08T21:48:38.137Z,0.70
2019-06-08T21:51:08.271Z,0.80
2019-06-08T21:53:38.161Z,0.73
2019-06-08T21:56:07.820Z,0.93
2019-06-08T21:58:37.794Z,0.80
2019-06-08T22:01:07.382Z,0.73
2019-06-08T22:03:37.933Z,0.97
2019-06-08T22:06:07.892Z,0.80
2019-06-08T22:08:37.588Z,0.80
2019-06-08T22:11:08.707Z,0.97
2019-06-08T22:13:37.464Z,0.90
2019-06-08T22:16:08.103Z,1.10
2019-06-08T22:18:38.048Z,0.87
2019-06-08T22:21:08.118Z,0.83
2019-06-08T22:23:36.367Z,0.83
2019-06-08T22:26:04.775Z,0.83
2019-06-08T22:28:33.244Z,0.83
2019-06-08T22:31:01.835Z,0.90
2019-06-08T22:33:30.281Z,1.00
2019-06-08T22:35:58.825Z,0.70
2019-06-08T22:38:27.753Z,0.63
2019-06-08T22:40:57.621Z,0.80
2019-06-08T22:43:26.276Z,1.20
2019-06-08T22:45:54.708Z,1.37
2019-06-08T22:48:23.146Z,0.93
2019-06-08T22:50:53.322Z,0.97
2019-06-08T22:53:21.649Z,0.60
2019-06-08T22:55:50.078Z,1.00
2019-06-08T22:58:19.248Z,0.83
2019-06-08T23:00:52.467Z,0.87
2019-06-08T23:03:18.462Z,0.70
2019-06-08T23:05:47.703Z,0.97
2019-06-08T23:08:17.610Z,0.80
2019-06-08T23:10:48.097Z,0.60
2019-06-08T23:13:17.935Z,0.80
2019-06-08T23:15:47.830Z,0.60
2019-06-08T23:18:17.881Z,0.70
2019-06-08T23:20:47.901Z,0.70
2019-06-08T23:23:17.912Z,0.80
2019-06-08T23:25:47.840Z,1.23
2019-06-08T23:28:18.071Z,0.93
2019-06-08T23:30:47.753Z,1.00
2019-06-08T23:33:18.937Z,0.60
2019-06-08T23:36:29.340Z,0.77
2019-06-08T23:38:17.448Z,0.80
2019-06-08T23:40:47.452Z,0.90
2019-06-08T23:43:18.158Z,1.13
2019-06-08T23:45:47.488Z,1.40
2019-06-08T23:48:17.341Z,0.60
2019-06-08T23:50:47.489Z,1.20
2019-06-08T23:53:18.064Z,0.70
2019-06-08T23:55:47.887Z,0.70
2019-06-08T23:58:17.508Z,0.80
